createdAt,value
2022-10-26T00:00:50.208Z,7.60
2022-10-26T00:03:58.216Z,8.20
2022-10-26T00:07:03.664Z,13.40
2022-10-26T00:10:11.197Z,13.10
2022-10-26T00:13:16.709Z,14.10
2022-10-26T00:16:24.567Z,11.50
2022-10-26T00:19:30.367Z,13.20
2022-10-26T00:22:35.918Z,11.30
2022-10-26T00:25:41.567Z,11.30
2022-10-26T00:28:47.060Z,10.70
2022-10-26T00:31:52.668Z,9.90
2022-10-26T00:35:06.083Z,10.80
2022-10-26T00:38:21.583Z,8.70
2022-10-26T00:41:30.249Z,8.50
2022-10-26T00:45:01.808Z,6.70
2022-10-26T00:48:12.945Z,6.20
2022-10-26T00:51:25.597Z,6.10
2022-10-26T00:54:31.315Z,6.00
2022-10-26T00:57:39.049Z,5.70
2022-10-26T01:00:45.302Z,6.40
2022-10-26T01:06:56.344Z,6.30
2022-10-26T01:10:02.674Z,5.90
2022-10-26T01:13:08.864Z,6.60
2022-10-26T01:19:59.744Z,7.50
2022-10-26T01:23:14.713Z,7.60
2022-10-26T01:27:02.964Z,6.50
2022-10-26T01:30:28.278Z,6.70
2022-10-26T01:33:44.373Z,7.10
2022-10-26T01:36:56.082Z,6.40
2022-10-26T01:40:10.577Z,6.40
2022-10-26T01:43:18.089Z,6.90
2022-10-26T01:46:25.519Z,7.10
2022-10-26T01:49:34.297Z,6.40
2022-10-26T01:52:40.711Z,6.50
2022-10-26T01:55:50.329Z,7.30
2022-10-26T01:59:27.815Z,7.10
2022-10-26T02:02:48.486Z,6.90
2022-10-26T02:06:08.038Z,7.90
2022-10-26T02:09:24.773Z,7.10
2022-10-26T02:12:37.014Z,7.90
2022-10-26T02:15:49.922Z,7.30
2022-10-26T02:19:03.105Z,8.80
2022-10-26T02:22:15.049Z,8.80
2022-10-26T02:25:24.957Z,7.70
2022-10-26T02:28:36.493Z,6.30
2022-10-26T02:31:45.067Z,5.20
2022-10-26T02:34:52.880Z,4.70
2022-10-26T02:38:01.334Z,4.60
2022-10-26T02:41:09.029Z,4.20
2022-10-26T02:44:21.513Z,3.90
2022-10-26T02:47:28.069Z,4.10
2022-10-26T02:50:39.400Z,4.50
2022-10-26T02:53:51.255Z,6.80
2022-10-26T02:57:00.637Z,7.40
2022-10-26T03:00:08.170Z,7.10
2022-10-26T03:03:14.762Z,5.80
2022-10-26T03:06:25.149Z,6.30
2022-10-26T03:09:30.982Z,6.00
2022-10-26T03:12:36.529Z,7.40
2022-10-26T03:15:42.715Z,9.20
2022-10-26T03:18:48.141Z,12.00
2022-10-26T03:21:53.588Z,11.80
2022-10-26T03:24:59.103Z,10.20
2022-10-26T03:28:05.989Z,7.10
2022-10-26T03:31:11.568Z,7.40
2022-10-26T03:34:17.016Z,5.60
2022-10-26T03:37:22.461Z,4.70
2022-10-26T03:40:28.010Z,4.20
2022-10-26T03:43:33.430Z,4.10
2022-10-26T03:46:38.904Z,3.80
2022-10-26T03:49:44.354Z,3.60
2022-10-26T03:52:51.365Z,3.60
2022-10-26T03:55:57.091Z,3.80
2022-10-26T03:59:02.947Z,4.50
2022-10-26T04:02:08.396Z,4.30
2022-10-26T04:05:14.395Z,3.90
2022-10-26T04:08:20.037Z,5.60
2022-10-26T04:11:25.554Z,4.90
2022-10-26T04:14:31.104Z,6.50
2022-10-26T04:17:36.653Z,6.60
2022-10-26T04:20:42.940Z,6.50
2022-10-26T04:26:52.379Z,6.20
2022-10-26T04:29:57.929Z,5.00
2022-10-26T04:33:03.409Z,5.30
2022-10-26T04:36:10.720Z,4.30
2022-10-26T04:39:16.527Z,6.70
2022-10-26T04:42:22.073Z,6.60
2022-10-26T04:45:31.125Z,5.30
2022-10-26T04:48:36.858Z,4.10
2022-10-26T04:51:42.307Z,3.60
2022-10-26T04:54:48.059Z,5.70
2022-10-26T04:57:55.984Z,4.00
2022-10-26T05:01:05.395Z,4.90
2022-10-26T05:04:11.059Z,5.50
2022-10-26T05:07:16.606Z,5.90
2022-10-26T05:10:22.158Z,5.90
2022-10-26T05:16:38.272Z,4.90
2022-10-26T05:19:43.720Z,5.80
2022-10-26T05:22:55.006Z,5.60
2022-10-26T05:26:00.478Z,5.90
2022-10-26T05:29:05.972Z,5.60
2022-10-26T05:32:11.446Z,5.70
2022-10-26T05:35:17.329Z,5.80
2022-10-26T05:38:22.991Z,5.20
2022-10-26T05:41:28.738Z,7.30
2022-10-26T05:44:34.156Z,5.70
2022-10-26T05:47:42.316Z,4.70
2022-10-26T05:50:48.191Z,4.10
2022-10-26T05:53:55.619Z,4.70
2022-10-26T05:57:02.293Z,5.70
2022-10-26T06:00:11.597Z,5.90
2022-10-26T06:03:32.651Z,6.00
2022-10-26T06:06:45.259Z,6.40
2022-10-26T06:09:52.345Z,6.50
2022-10-26T06:12:58.941Z,6.60
2022-10-26T06:16:29.351Z,6.60
2022-10-26T06:19:48.418Z,6.40
2022-10-26T06:23:06.356Z,5.70
2022-10-26T06:26:19.226Z,5.00
2022-10-26T06:29:37.850Z,5.00
2022-10-26T06:32:45.541Z,5.10
2022-10-26T06:36:03.382Z,4.30
2022-10-26T06:39:12.128Z,4.30
2022-10-26T06:42:18.942Z,5.00
2022-10-26T06:45:25.805Z,5.60
2022-10-26T06:48:36.254Z,5.50
2022-10-26T06:51:48.269Z,5.90
2022-10-26T06:54:55.800Z,7.30
2022-10-26T06:58:02.946Z,6.00
2022-10-26T07:01:11.906Z,8.90
2022-10-26T07:04:17.482Z,14.00
2022-10-26T07:07:24.923Z,11.00
2022-10-26T07:10:30.431Z,11.50
2022-10-26T07:13:35.974Z,11.40
2022-10-26T07:16:41.523Z,12.70
2022-10-26T07:19:46.956Z,12.80
2022-10-26T07:22:56.760Z,11.80
2022-10-26T07:26:03.521Z,13.60
2022-10-26T07:29:09.148Z,15.00
2022-10-26T07:32:14.589Z,12.40
2022-10-26T07:35:20.146Z,12.20
2022-10-26T07:38:26.004Z,11.90
2022-10-26T07:41:31.477Z,12.20
2022-10-26T07:44:36.999Z,11.50
2022-10-26T07:47:42.547Z,11.40
2022-10-26T07:50:48.009Z,8.90
2022-10-26T07:53:53.408Z,8.90
2022-10-26T07:56:59.626Z,7.80
2022-10-26T08:03:10.602Z,7.10
2022-10-26T08:06:16.561Z,7.90
2022-10-26T08:09:22.008Z,7.20
2022-10-26T08:12:27.659Z,8.00
2022-10-26T08:15:33.107Z,7.60
2022-10-26T08:18:38.560Z,7.10
2022-10-26T08:21:44.000Z,7.10
2022-10-26T08:24:49.550Z,8.10
2022-10-26T08:27:55.613Z,5.90
2022-10-26T08:31:02.393Z,5.40
2022-10-26T08:34:07.939Z,5.70
2022-10-26T08:37:13.383Z,7.50
2022-10-26T08:40:21.021Z,5.70
2022-10-26T08:43:34.783Z,3.90
2022-10-26T08:46:45.739Z,3.80
2022-10-26T08:49:59.592Z,3.60
2022-10-26T08:53:14.368Z,3.50
2022-10-26T08:56:23.065Z,3.40
2022-10-26T08:59:36.694Z,3.40
2022-10-26T09:02:42.327Z,3.90
2022-10-26T09:06:06.410Z,3.20
2022-10-26T09:09:19.028Z,3.30
2022-10-26T09:12:35.224Z,3.10
2022-10-26T09:15:58.284Z,3.60
2022-10-26T09:19:32.814Z,3.40
2022-10-26T09:22:48.823Z,3.80
2022-10-26T09:26:01.627Z,3.50
2022-10-26T09:29:12.297Z,3.00
2022-10-26T09:32:20.907Z,3.20
2022-10-26T09:38:41.335Z,3.40
2022-10-26T09:41:51.318Z,3.50
2022-10-26T09:44:59.909Z,2.40
2022-10-26T09:48:13.397Z,2.80
2022-10-26T09:51:19.815Z,2.60
2022-10-26T09:54:25.577Z,2.50
2022-10-26T09:57:31.669Z,2.30
2022-10-26T10:00:38.922Z,2.60
2022-10-26T10:03:44.396Z,2.50
2022-10-26T10:06:51.658Z,2.20
2022-10-26T10:10:16.458Z,2.90
2022-10-26T10:13:25.434Z,2.60
2022-10-26T10:16:30.937Z,2.50
2022-10-26T10:19:38.478Z,2.50
2022-10-26T10:22:57.832Z,2.30
2022-10-26T10:26:06.212Z,2.50
2022-10-26T10:29:18.531Z,2.60
2022-10-26T10:32:25.874Z,2.20
2022-10-26T10:35:33.191Z,3.60
2022-10-26T10:38:44.750Z,2.50
2022-10-26T10:41:50.281Z,2.20
2022-10-26T10:44:59.197Z,2.40
2022-10-26T10:48:14.812Z,3.00
2022-10-26T10:51:25.162Z,2.20
2022-10-26T10:54:34.286Z,2.20
2022-10-26T10:57:50.870Z,4.80
2022-10-26T11:00:57.461Z,4.90
2022-10-26T11:04:34.177Z,2.40
2022-10-26T11:07:45.917Z,2.40
2022-10-26T11:10:55.703Z,7.00
2022-10-26T11:14:07.460Z,2.50
2022-10-26T11:17:19.769Z,2.60
2022-10-26T11:20:30.439Z,1.70
2022-10-26T11:23:43.189Z,7.70
2022-10-26T11:26:54.002Z,3.40
2022-10-26T11:30:06.986Z,2.50
2022-10-26T11:33:18.132Z,1.90
2022-10-26T11:36:30.379Z,1.70
2022-10-26T11:39:43.568Z,1.60
2022-10-26T11:42:56.816Z,2.20
2022-10-26T11:46:08.333Z,2.90
2022-10-26T11:49:20.697Z,2.40
2022-10-26T11:52:30.956Z,1.90
2022-10-26T11:55:36.812Z,1.20
2022-10-26T11:58:44.060Z,1.70
2022-10-26T12:01:52.209Z,2.70
2022-10-26T12:05:03.708Z,1.50
2022-10-26T12:08:15.807Z,1.30
2022-10-26T12:11:36.257Z,1.50
2022-10-26T12:14:47.537Z,1.60
2022-10-26T12:18:02.149Z,1.90
2022-10-26T12:21:09.789Z,1.00
2022-10-26T12:24:35.500Z,0.90
2022-10-26T12:27:58.475Z,1.10
2022-10-26T12:31:34.797Z,1.10
2022-10-26T12:35:05.642Z,5.20
2022-10-26T12:38:56.657Z,2.30
2022-10-26T12:42:30.369Z,2.40
2022-10-26T12:45:35.984Z,2.50
2022-10-26T12:48:44.603Z,1.90
2022-10-26T12:51:51.448Z,2.20
2022-10-26T12:55:31.822Z,1.90
2022-10-26T12:59:14.737Z,1.70
2022-10-26T13:02:41.661Z,1.70
2022-10-26T13:06:19.568Z,1.80
2022-10-26T13:09:28.834Z,1.60
2022-10-26T13:12:48.493Z,1.50
2022-10-26T13:15:58.357Z,1.50
2022-10-26T13:19:04.201Z,1.50
2022-10-26T13:22:17.276Z,1.40
2022-10-26T13:25:26.365Z,1.40
2022-10-26T13:28:45.315Z,1.30
2022-10-26T13:31:57.799Z,1.20
2022-10-26T13:35:05.322Z,1.50
2022-10-26T13:38:12.925Z,1.40
2022-10-26T13:41:34.065Z,1.50
2022-10-26T13:44:45.836Z,1.30
2022-10-26T13:47:57.345Z,1.50
2022-10-26T13:51:07.522Z,1.80
2022-10-26T13:54:22.709Z,3.40
2022-10-26T13:57:35.165Z,2.20
2022-10-26T14:00:40.949Z,1.30
2022-10-26T14:06:52.783Z,1.60
2022-10-26T14:09:59.796Z,2.40
2022-10-26T14:13:10.284Z,2.80
2022-10-26T14:16:20.489Z,3.80
2022-10-26T14:19:30.805Z,4.30
2022-10-26T14:22:36.354Z,3.90
2022-10-26T14:25:42.357Z,3.10
2022-10-26T14:28:55.877Z,2.80
2022-10-26T14:32:01.400Z,2.90
2022-10-26T14:35:12.304Z,3.60
2022-10-26T14:38:23.149Z,3.40
2022-10-26T14:41:30.216Z,2.80
2022-10-26T14:44:39.489Z,2.50
2022-10-26T14:47:49.772Z,2.50
2022-10-26T14:51:02.882Z,2.70
2022-10-26T14:54:22.871Z,3.50
2022-10-26T14:57:37.074Z,2.80
2022-10-26T15:00:43.441Z,2.80
2022-10-26T15:03:53.660Z,4.00
2022-10-26T15:07:10.813Z,3.80
2022-10-26T15:10:48.678Z,14.60
2022-10-26T15:13:54.973Z,3.50
2022-10-26T15:17:01.437Z,20.30
2022-10-26T15:20:15.514Z,12.00
2022-10-26T15:23:22.268Z,4.80
2022-10-26T15:26:28.286Z,2.40
2022-10-26T15:32:45.627Z,6.10
2022-10-26T15:35:51.326Z,9.30
2022-10-26T15:38:57.272Z,26.30
2022-10-26T15:42:02.788Z,4.50
2022-10-26T15:45:18.262Z,3.60
2022-10-26T15:48:29.086Z,3.60
2022-10-26T15:51:35.614Z,2.90
2022-10-26T15:54:41.167Z,2.50
2022-10-26T15:57:47.200Z,2.60
2022-10-26T16:00:53.263Z,2.60
2022-10-26T16:03:58.933Z,2.90
2022-10-26T16:07:05.969Z,5.60
2022-10-26T16:10:23.250Z,8.10
2022-10-26T16:13:28.798Z,10.10
2022-10-26T16:16:34.351Z,7.60
2022-10-26T16:19:39.899Z,6.60
2022-10-26T16:22:48.501Z,4.90
2022-10-26T16:25:53.966Z,5.80
2022-10-26T16:28:59.408Z,5.40
2022-10-26T16:32:04.962Z,4.70
2022-10-26T16:35:12.362Z,6.70
2022-10-26T16:38:17.904Z,8.40
2022-10-26T16:44:33.687Z,8.10
2022-10-26T16:47:40.246Z,8.30
2022-10-26T16:50:45.735Z,5.80
2022-10-26T16:53:52.964Z,9.90
2022-10-26T16:56:58.575Z,11.20
2022-10-26T17:00:04.330Z,15.20
2022-10-26T17:03:09.736Z,14.30
2022-10-26T17:06:15.736Z,20.60
2022-10-26T17:09:21.125Z,35.60
2022-10-26T17:15:36.992Z,60.10
2022-10-26T17:18:43.681Z,54.90
2022-10-26T17:21:49.118Z,56.50
2022-10-26T17:24:54.668Z,26.60
2022-10-26T17:28:00.318Z,14.40
2022-10-26T17:31:07.868Z,12.30
2022-10-26T17:34:13.309Z,11.40
2022-10-26T17:37:18.899Z,9.80
2022-10-26T17:40:24.465Z,9.20
2022-10-26T17:43:32.517Z,11.60
2022-10-26T17:46:37.941Z,23.40
2022-10-26T17:49:43.369Z,18.00
2022-10-26T17:52:48.921Z,14.50
2022-10-26T17:56:02.989Z,11.00
2022-10-26T17:59:12.649Z,10.30
2022-10-26T18:02:18.242Z,10.70
2022-10-26T18:05:23.854Z,10.40
2022-10-26T18:08:33.044Z,10.10
2022-10-26T18:11:38.798Z,9.70
2022-10-26T18:14:44.347Z,12.50
2022-10-26T18:17:56.732Z,12.20
2022-10-26T18:21:06.859Z,8.90
2022-10-26T18:24:12.570Z,10.10
2022-10-26T18:27:20.294Z,9.90
2022-10-26T18:30:26.900Z,9.40
2022-10-26T18:33:32.949Z,9.10
2022-10-26T18:36:39.068Z,8.60
2022-10-26T18:42:48.527Z,9.20
2022-10-26T18:45:54.281Z,9.20
2022-10-26T18:49:01.342Z,9.70
2022-10-26T18:52:10.262Z,10.20
2022-10-26T18:55:15.751Z,19.30
2022-10-26T18:58:21.204Z,20.30
2022-10-26T19:01:28.598Z,23.30
2022-10-26T19:04:34.338Z,15.90
2022-10-26T19:07:40.137Z,14.10
2022-10-26T19:10:45.648Z,11.90
2022-10-26T19:13:52.896Z,12.70
2022-10-26T19:16:58.378Z,11.50
2022-10-26T19:20:03.970Z,10.30
2022-10-26T19:23:09.887Z,10.80
2022-10-26T19:26:17.486Z,12.50
2022-10-26T19:29:24.733Z,11.60
2022-10-26T19:32:30.940Z,11.00
2022-10-26T19:38:42.094Z,12.60
2022-10-26T19:44:52.113Z,12.30
2022-10-26T19:47:58.379Z,11.00
2022-10-26T19:54:08.046Z,11.10
2022-10-26T19:57:13.588Z,9.70
2022-10-26T20:00:20.085Z,11.00
2022-10-26T20:03:26.658Z,11.00
2022-10-26T20:06:32.295Z,10.60
2022-10-26T20:09:37.738Z,12.10
2022-10-26T20:12:43.184Z,14.70
2022-10-26T20:15:49.909Z,13.80
2022-10-26T20:18:55.410Z,13.80
2022-10-26T20:22:00.945Z,14.20
2022-10-26T20:25:07.604Z,14.00
2022-10-26T20:28:13.761Z,13.70
2022-10-26T20:34:23.115Z,14.20
2022-10-26T20:37:29.830Z,14.90
2022-10-26T20:40:36.950Z,14.60
2022-10-26T20:43:43.858Z,15.00
2022-10-26T20:46:51.256Z,36.00
2022-10-26T20:49:57.768Z,17.70
2022-10-26T20:53:12.005Z,12.20
2022-10-26T20:56:23.820Z,13.00
2022-10-26T20:59:36.539Z,13.50
2022-10-26T21:02:41.980Z,13.80
2022-10-26T21:05:48.951Z,15.10
2022-10-26T21:08:55.757Z,12.30
2022-10-26T21:12:01.225Z,10.60
2022-10-26T21:15:08.481Z,10.20
2022-10-26T21:18:13.920Z,10.70
2022-10-26T21:21:19.374Z,10.10
2022-10-26T21:24:24.886Z,10.30
2022-10-26T21:27:30.508Z,9.40
2022-10-26T21:30:36.227Z,9.70
2022-10-26T21:33:42.321Z,10.40
2022-10-26T21:36:47.839Z,10.10
2022-10-26T21:39:53.285Z,10.70
2022-10-26T21:42:58.832Z,10.40
2022-10-26T21:46:04.699Z,10.50
2022-10-26T21:49:10.137Z,10.50
2022-10-26T21:52:15.688Z,11.00
2022-10-26T21:55:21.236Z,10.50
2022-10-26T21:58:26.683Z,10.70
2022-10-26T22:01:32.305Z,11.30
2022-10-26T22:04:38.806Z,10.20
2022-10-26T22:07:44.388Z,10.10
2022-10-26T22:10:49.767Z,11.80
2022-10-26T22:13:55.715Z,14.40
2022-10-26T22:17:01.110Z,13.70
2022-10-26T22:20:08.152Z,12.20
2022-10-26T22:23:13.642Z,12.20
2022-10-26T22:26:21.240Z,11.40
2022-10-26T22:29:26.654Z,10.40
2022-10-26T22:32:32.132Z,13.10
2022-10-26T22:35:37.679Z,11.20
2022-10-26T22:38:43.810Z,11.90
2022-10-26T22:41:50.519Z,10.30
2022-10-26T22:44:55.953Z,11.10
2022-10-26T22:48:01.567Z,11.10
2022-10-26T22:51:12.111Z,11.30
2022-10-26T22:54:17.866Z,10.80
2022-10-26T22:57:23.387Z,11.50
2022-10-26T23:00:28.806Z,11.60
2022-10-26T23:03:34.382Z,11.50
2022-10-26T23:06:40.036Z,12.60
2022-10-26T23:09:45.586Z,12.10
2022-10-26T23:12:54.179Z,13.00
2022-10-26T23:16:07.869Z,15.80
2022-10-26T23:19:13.789Z,15.10
2022-10-26T23:22:19.210Z,16.50
2022-10-26T23:25:24.698Z,16.40
2022-10-26T23:28:30.350Z,15.80
2022-10-26T23:31:35.736Z,18.40
2022-10-26T23:34:41.146Z,18.20
2022-10-26T23:37:46.662Z,20.50
2022-10-26T23:40:53.848Z,19.50
2022-10-26T23:43:59.429Z,18.90
2022-10-26T23:47:04.839Z,18.50
2022-10-26T23:50:11.275Z,19.60
2022-10-26T23:53:19.354Z,19.10
2022-10-26T23:56:24.811Z,17.80
2022-10-26T23:59:30.302Z,16.80
